createdAt,value
2023-03-20T00:01:46.756Z,10.70
2023-03-20T00:04:37.169Z,10.60
2023-03-20T00:07:26.532Z,10.60
2023-03-20T00:10:22.942Z,10.60
2023-03-20T00:13:24.458Z,10.60
2023-03-20T00:16:20.756Z,10.60
2023-03-20T00:19:20.236Z,10.60
2023-03-20T00:22:15.486Z,10.60
2023-03-20T00:25:09.084Z,10.50
2023-03-20T00:27:59.921Z,10.50
2023-03-20T00:30:52.670Z,10.50
2023-03-20T00:33:51.587Z,10.50
2023-03-20T00:36:44.814Z,10.50
2023-03-20T00:39:35.597Z,10.40
2023-03-20T00:42:26.228Z,10.40
2023-03-20T00:45:19.879Z,10.40
2023-03-20T00:48:17.200Z,10.40
2023-03-20T00:51:07.421Z,10.30
2023-03-20T00:54:01.530Z,10.40
2023-03-20T00:56:58.789Z,10.30
2023-03-20T00:59:56.583Z,10.30
2023-03-20T01:02:48.653Z,10.30
2023-03-20T01:05:41.678Z,10.30
2023-03-20T01:08:33.633Z,10.30
2023-03-20T01:11:26.789Z,10.30
2023-03-20T01:14:18.446Z,10.20
2023-03-20T01:17:13.590Z,10.20
2023-03-20T01:20:04.215Z,10.20
2023-03-20T01:22:59.666Z,10.20
2023-03-20T01:25:53.084Z,10.20
2023-03-20T01:28:45.486Z,10.20
2023-03-20T01:31:36.801Z,10.20
2023-03-20T01:34:28.668Z,10.20
2023-03-20T01:37:26.906Z,10.20
2023-03-20T01:40:34.273Z,10.20
2023-03-20T01:43:27.777Z,10.20
2023-03-20T01:46:24.719Z,10.20
2023-03-20T01:49:46.938Z,10.20
2023-03-20T01:52:37.416Z,10.20
2023-03-20T01:55:37.497Z,10.20
2023-03-20T01:58:40.849Z,10.20
2023-03-20T02:01:34.630Z,10.20
2023-03-20T02:04:29.161Z,10.20
2023-03-20T02:07:28.000Z,10.20
2023-03-20T02:10:25.014Z,10.20
2023-03-20T02:13:31.198Z,10.20
2023-03-20T02:16:22.131Z,10.20
2023-03-20T02:19:32.366Z,10.20
2023-03-20T02:22:46.192Z,10.20
2023-03-20T02:26:03.817Z,10.20
2023-03-20T02:29:17.395Z,10.20
2023-03-20T02:32:33.769Z,10.10
2023-03-20T02:35:42.059Z,10.10
2023-03-20T02:38:56.924Z,10.10
2023-03-20T02:41:54.784Z,10.10
2023-03-20T02:44:55.371Z,10.10
2023-03-20T02:47:59.818Z,10.10
2023-03-20T02:50:56.400Z,10.10
2023-03-20T02:53:58.815Z,10.10
2023-03-20T02:57:00.805Z,10.10
2023-03-20T02:59:59.367Z,10.00
2023-03-20T03:03:10.315Z,10.10
2023-03-20T03:06:14.937Z,10.10
2023-03-20T03:09:17.630Z,10.10
2023-03-20T03:12:11.982Z,10.10
2023-03-20T03:15:13.149Z,10.00
2023-03-20T03:18:06.745Z,10.10
2023-03-20T03:21:04.018Z,10.10
2023-03-20T03:23:57.209Z,10.00
2023-03-20T03:26:53.123Z,10.00
2023-03-20T03:29:47.161Z,10.00
2023-03-20T03:32:45.741Z,10.00
2023-03-20T03:35:36.184Z,10.00
2023-03-20T03:38:34.436Z,10.00
2023-03-20T03:41:32.616Z,10.00
2023-03-20T03:44:41.142Z,10.00
2023-03-20T03:47:36.246Z,10.00
2023-03-20T03:50:32.365Z,10.00
2023-03-20T03:53:31.075Z,9.90
2023-03-20T03:56:28.037Z,9.90
2023-03-20T03:59:26.346Z,9.90
2023-03-20T04:02:18.507Z,9.90
2023-03-20T04:05:10.242Z,9.90
2023-03-20T04:08:08.101Z,9.90
2023-03-20T04:10:58.621Z,9.90
2023-03-20T04:13:53.689Z,9.90
2023-03-20T04:16:46.678Z,9.90
2023-03-20T04:19:41.951Z,9.90
2023-03-20T04:22:38.333Z,9.90
2023-03-20T04:25:35.095Z,9.90
2023-03-20T04:28:26.034Z,9.90
2023-03-20T04:31:24.792Z,9.90
2023-03-20T04:34:33.274Z,9.90
2023-03-20T04:37:48.495Z,9.90
2023-03-20T04:40:40.913Z,9.90
2023-03-20T04:43:38.465Z,9.90
2023-03-20T04:46:33.456Z,9.90
2023-03-20T04:52:37.436Z,9.90
2023-03-20T04:55:33.889Z,9.90
2023-03-20T04:58:29.949Z,9.90
2023-03-20T05:01:26.958Z,9.80
2023-03-20T05:04:31.495Z,9.80
2023-03-20T05:07:21.610Z,9.80
2023-03-20T05:10:22.121Z,9.80
2023-03-20T05:13:21.728Z,9.80
2023-03-20T05:16:34.280Z,9.80
2023-03-20T05:19:39.616Z,9.70
2023-03-20T05:22:30.648Z,9.70
2023-03-20T05:25:39.907Z,9.70
2023-03-20T05:28:55.443Z,9.70
2023-03-20T05:31:57.644Z,9.60
2023-03-20T05:35:00.271Z,9.60
2023-03-20T05:38:08.526Z,9.60
2023-03-20T05:41:08.504Z,9.60
2023-03-20T05:44:23.151Z,9.60
2023-03-20T05:47:31.538Z,9.60
2023-03-20T05:50:23.008Z,9.60
2023-03-20T05:53:14.806Z,9.60
2023-03-20T05:56:14.493Z,9.60
2023-03-20T05:59:21.616Z,9.60
2023-03-20T06:02:25.824Z,9.70
2023-03-20T06:05:29.488Z,9.60
2023-03-20T06:08:28.759Z,9.70
2023-03-20T06:11:25.192Z,9.60
2023-03-20T06:14:18.486Z,9.70
2023-03-20T06:17:20.492Z,9.70
2023-03-20T06:20:20.592Z,9.70
2023-03-20T06:23:12.369Z,9.70
2023-03-20T06:26:03.981Z,9.70
2023-03-20T06:29:07.727Z,9.80
2023-03-20T06:31:56.269Z,9.70
2023-03-20T06:34:50.154Z,9.80
2023-03-20T06:37:43.678Z,9.70
2023-03-20T06:40:36.368Z,9.70
2023-03-20T06:43:24.485Z,9.70
2023-03-20T06:46:21.242Z,9.70
2023-03-20T06:49:11.408Z,9.70
2023-03-20T06:52:02.408Z,9.70
2023-03-20T06:54:52.730Z,9.70
2023-03-20T06:57:40.933Z,9.80
2023-03-20T07:00:29.260Z,9.90
2023-03-20T07:03:18.189Z,10.00
2023-03-20T07:06:09.604Z,10.10
2023-03-20T07:08:59.502Z,10.30
2023-03-20T07:11:47.174Z,10.40
2023-03-20T07:14:37.366Z,10.40
2023-03-20T07:17:33.773Z,10.50
2023-03-20T07:20:21.931Z,10.60
2023-03-20T07:23:11.113Z,10.60
2023-03-20T07:26:37.206Z,10.70
2023-03-20T07:29:27.749Z,10.80
2023-03-20T07:32:16.906Z,10.80
2023-03-20T07:35:09.794Z,10.80
2023-03-20T07:37:58.918Z,10.80
2023-03-20T07:40:49.140Z,10.90
2023-03-20T07:43:44.264Z,11.10
2023-03-20T07:46:52.339Z,11.40
2023-03-20T07:49:39.922Z,11.60
2023-03-20T07:52:26.976Z,11.80
2023-03-20T07:55:16.656Z,11.90
2023-03-20T07:58:08.978Z,11.80
2023-03-20T08:00:58.492Z,11.80
2023-03-20T08:03:45.705Z,11.70
2023-03-20T08:06:32.695Z,11.70
2023-03-20T08:09:20.513Z,11.70
2023-03-20T08:12:08.000Z,11.60
2023-03-20T08:14:55.373Z,11.60
2023-03-20T08:17:46.132Z,11.70
2023-03-20T08:20:34.111Z,11.90
2023-03-20T08:23:21.307Z,12.00
2023-03-20T08:26:08.902Z,12.20
2023-03-20T08:28:55.974Z,12.40
2023-03-20T08:31:42.999Z,12.50
2023-03-20T08:34:36.103Z,12.60
2023-03-20T08:37:26.547Z,12.70
2023-03-20T08:40:15.046Z,12.70
2023-03-20T08:43:05.694Z,12.70
2023-03-20T08:45:53.993Z,12.70
2023-03-20T08:48:41.546Z,12.80
2023-03-20T08:51:36.868Z,12.80
2023-03-20T08:54:26.048Z,12.80
2023-03-20T08:57:13.889Z,12.90
2023-03-20T09:00:01.688Z,13.10
2023-03-20T09:02:52.118Z,13.20
2023-03-20T09:05:44.816Z,13.20
2023-03-20T09:08:33.614Z,13.30
2023-03-20T09:11:21.372Z,13.30
2023-03-20T09:14:09.428Z,13.40
2023-03-20T09:16:58.915Z,13.40
2023-03-20T09:19:52.058Z,13.70
2023-03-20T09:22:44.346Z,14.00
2023-03-20T09:25:33.982Z,14.20
2023-03-20T09:28:30.849Z,14.20
2023-03-20T09:31:18.686Z,14.20
2023-03-20T09:34:06.445Z,14.20
2023-03-20T09:36:54.050Z,14.10
2023-03-20T09:39:41.996Z,14.00
2023-03-20T09:42:46.766Z,14.00
2023-03-20T09:45:48.823Z,14.00
2023-03-20T09:48:46.278Z,14.10
2023-03-20T09:51:40.135Z,14.30
2023-03-20T09:54:43.421Z,14.40
2023-03-20T09:57:43.473Z,14.50
2023-03-20T10:00:36.522Z,14.60
2023-03-20T10:03:42.747Z,14.50
2023-03-20T10:06:34.120Z,14.40
2023-03-20T10:09:25.046Z,14.40
2023-03-20T10:12:31.278Z,14.40
2023-03-20T10:15:31.989Z,14.30
2023-03-20T10:18:29.950Z,14.30
2023-03-20T10:21:24.761Z,14.40
2023-03-20T10:24:21.621Z,14.60
2023-03-20T10:27:22.257Z,14.70
2023-03-20T10:30:25.242Z,15.00
2023-03-20T10:33:34.759Z,15.20
2023-03-20T10:36:41.114Z,15.50
2023-03-20T10:39:46.448Z,16.90
2023-03-20T10:42:39.290Z,17.80
2023-03-20T10:45:47.293Z,17.80
2023-03-20T10:48:40.590Z,17.60
2023-03-20T10:51:40.231Z,17.40
2023-03-20T10:54:31.079Z,17.10
2023-03-20T10:57:24.483Z,17.00
2023-03-20T11:00:19.910Z,16.90
2023-03-20T11:03:14.607Z,16.90
2023-03-20T11:06:10.050Z,17.10
2023-03-20T11:08:58.945Z,17.10
2023-03-20T11:11:48.762Z,17.00
2023-03-20T11:14:38.793Z,16.80
2023-03-20T11:17:30.885Z,16.70
2023-03-20T11:20:20.303Z,16.60
2023-03-20T11:23:09.787Z,16.60
2023-03-20T11:26:01.199Z,16.60
2023-03-20T11:28:53.357Z,16.90
2023-03-20T11:31:43.095Z,16.90
2023-03-20T11:34:43.691Z,16.90
2023-03-20T11:37:44.971Z,16.90
2023-03-20T11:40:35.990Z,16.90
2023-03-20T11:43:29.520Z,16.70
2023-03-20T11:46:16.705Z,16.60
2023-03-20T11:49:08.539Z,16.40
2023-03-20T11:52:01.264Z,16.40
2023-03-20T11:54:55.695Z,16.40
2023-03-20T11:57:47.349Z,16.40
2023-03-20T12:00:39.982Z,16.50
2023-03-20T12:03:45.073Z,16.60
2023-03-20T12:06:44.423Z,16.80
2023-03-20T12:09:44.589Z,16.90
2023-03-20T12:12:48.187Z,17.00
2023-03-20T12:15:40.378Z,16.90
2023-03-20T12:18:34.128Z,16.80
2023-03-20T12:21:32.337Z,16.70
2023-03-20T12:24:29.512Z,16.70
2023-03-20T12:27:24.735Z,16.70
2023-03-20T12:30:18.408Z,16.70
2023-03-20T12:33:10.890Z,16.70
2023-03-20T12:36:02.096Z,16.60
2023-03-20T12:38:49.689Z,16.50
2023-03-20T12:41:48.603Z,16.40
2023-03-20T12:44:43.000Z,16.20
2023-03-20T12:47:53.670Z,16.00
2023-03-20T12:50:43.476Z,15.80
2023-03-20T12:53:42.820Z,15.60
2023-03-20T12:56:57.346Z,15.50
2023-03-20T13:00:04.758Z,15.30
2023-03-20T13:03:14.077Z,15.20
2023-03-20T13:06:12.359Z,15.00
2023-03-20T13:09:23.366Z,14.90
2023-03-20T13:12:22.423Z,14.80
2023-03-20T13:15:24.740Z,14.70
2023-03-20T13:18:21.718Z,14.70
2023-03-20T13:21:15.779Z,14.80
2023-03-20T13:24:13.074Z,14.80
2023-03-20T13:27:08.088Z,14.80
2023-03-20T13:30:03.576Z,15.00
2023-03-20T13:33:00.489Z,15.20
2023-03-20T13:35:54.686Z,15.50
2023-03-20T13:38:50.693Z,15.70
2023-03-20T13:41:41.185Z,15.90
2023-03-20T13:44:34.042Z,16.00
2023-03-20T13:47:27.367Z,16.20
2023-03-20T13:50:31.944Z,16.50
2023-03-20T13:53:31.126Z,16.80
2023-03-20T13:56:32.442Z,16.90
2023-03-20T13:59:40.349Z,16.90
2023-03-20T14:02:45.738Z,16.90
2023-03-20T14:05:39.136Z,16.90
2023-03-20T14:08:34.029Z,17.00
2023-03-20T14:11:35.646Z,16.90
2023-03-20T14:14:29.776Z,17.10
2023-03-20T14:17:22.103Z,17.10
2023-03-20T14:20:23.913Z,17.00
2023-03-20T14:23:20.907Z,16.80
2023-03-20T14:26:19.725Z,16.80
2023-03-20T14:29:33.630Z,16.60
2023-03-20T14:32:34.777Z,16.60
2023-03-20T14:35:27.892Z,16.60
2023-03-20T14:38:25.321Z,16.70
2023-03-20T14:41:21.349Z,17.00
2023-03-20T14:44:27.008Z,17.10
2023-03-20T14:47:27.027Z,17.10
2023-03-20T14:50:19.811Z,17.00
2023-03-20T14:53:18.070Z,16.90
2023-03-20T14:56:11.549Z,16.80
2023-03-20T14:59:04.391Z,16.70
2023-03-20T15:01:59.635Z,16.60
2023-03-20T15:04:47.428Z,16.50
2023-03-20T15:07:40.811Z,16.40
2023-03-20T15:10:28.623Z,16.30
2023-03-20T15:13:18.112Z,16.10
2023-03-20T15:16:11.112Z,16.10
2023-03-20T15:18:59.763Z,16.10
2023-03-20T15:21:50.690Z,16.10
2023-03-20T15:24:38.746Z,16.10
2023-03-20T15:27:29.827Z,16.10
2023-03-20T15:30:21.179Z,15.90
2023-03-20T15:33:17.539Z,15.80
2023-03-20T15:36:18.514Z,15.70
2023-03-20T15:39:13.558Z,15.60
2023-03-20T15:42:04.654Z,15.50
2023-03-20T15:44:55.835Z,15.50
2023-03-20T15:47:44.908Z,15.40
2023-03-20T15:50:38.426Z,15.30
2023-03-20T15:53:29.656Z,15.30
2023-03-20T15:56:20.191Z,15.10
2023-03-20T15:59:08.949Z,15.10
2023-03-20T16:02:00.122Z,15.10
2023-03-20T16:04:52.542Z,15.10
2023-03-20T16:07:45.740Z,15.10
2023-03-20T16:10:36.969Z,15.00
2023-03-20T16:13:26.184Z,14.80
2023-03-20T16:16:17.851Z,14.70
2023-03-20T16:19:06.925Z,14.60
2023-03-20T16:21:57.637Z,14.50
2023-03-20T16:24:50.353Z,14.40
2023-03-20T16:27:39.110Z,14.40
2023-03-20T16:30:31.663Z,14.30
2023-03-20T16:33:21.353Z,14.20
2023-03-20T16:36:19.133Z,14.10
2023-03-20T16:39:19.988Z,14.00
2023-03-20T16:42:28.062Z,13.90
2023-03-20T16:45:30.172Z,13.90
2023-03-20T16:48:31.657Z,13.80
2023-03-20T16:51:25.484Z,13.80
2023-03-20T16:54:25.993Z,13.70
2023-03-20T16:57:18.863Z,13.70
2023-03-20T17:00:24.301Z,13.60
2023-03-20T17:03:22.343Z,13.50
2023-03-20T17:06:38.532Z,13.40
2023-03-20T17:09:31.970Z,13.40
2023-03-20T17:12:27.092Z,13.30
2023-03-20T17:15:22.546Z,13.20
2023-03-20T17:18:17.548Z,13.10
2023-03-20T17:21:07.788Z,13.10
2023-03-20T17:23:58.098Z,13.00
2023-03-20T17:26:58.180Z,13.00
2023-03-20T17:29:50.628Z,12.90
2023-03-20T17:32:44.207Z,12.80
2023-03-20T17:35:38.422Z,12.80
2023-03-20T17:38:28.150Z,12.80
2023-03-20T17:41:19.520Z,12.80
2023-03-20T17:44:12.332Z,12.70
2023-03-20T17:47:03.660Z,12.50
2023-03-20T17:49:56.561Z,12.40
2023-03-20T17:52:47.195Z,12.30
2023-03-20T17:55:36.753Z,12.20
2023-03-20T17:58:31.946Z,12.10
2023-03-20T18:01:21.879Z,12.10
2023-03-20T18:04:10.959Z,12.00
2023-03-20T18:07:19.966Z,11.90
2023-03-20T18:10:22.909Z,11.80
2023-03-20T18:13:12.318Z,11.80
2023-03-20T18:16:02.954Z,11.70
2023-03-20T18:18:54.107Z,11.60
2023-03-20T18:21:45.278Z,11.60
2023-03-20T18:24:37.657Z,11.50
2023-03-20T18:27:27.234Z,11.50
2023-03-20T18:30:22.109Z,11.40
2023-03-20T18:33:11.663Z,11.30
2023-03-20T18:36:01.406Z,11.20
2023-03-20T18:38:50.184Z,11.20
2023-03-20T18:41:39.190Z,11.10
2023-03-20T18:44:26.636Z,11.00
2023-03-20T18:47:14.579Z,11.00
2023-03-20T18:50:02.383Z,10.90
2023-03-20T18:52:49.902Z,10.70
2023-03-20T18:55:38.423Z,10.70
2023-03-20T18:58:29.764Z,10.60
2023-03-20T19:01:18.204Z,10.60
2023-03-20T19:04:06.384Z,10.60
2023-03-20T19:06:54.272Z,10.50
2023-03-20T19:09:41.736Z,10.50
2023-03-20T19:12:29.672Z,10.40
2023-03-20T19:15:19.148Z,10.40
2023-03-20T19:18:07.850Z,10.40
2023-03-20T19:20:57.104Z,10.30
2023-03-20T19:23:44.926Z,10.30
2023-03-20T19:26:36.088Z,10.30
2023-03-20T19:29:23.882Z,10.30
2023-03-20T19:32:13.252Z,10.30
2023-03-20T19:38:08.988Z,10.30
2023-03-20T19:40:56.912Z,10.30
2023-03-20T19:43:52.975Z,10.30
2023-03-20T19:46:42.661Z,10.30
2023-03-20T19:49:33.278Z,10.30
2023-03-20T19:52:30.547Z,10.30
2023-03-20T19:55:18.407Z,10.30
2023-03-20T19:58:06.945Z,10.20
2023-03-20T20:01:11.113Z,10.20
2023-03-20T20:04:01.112Z,10.20
2023-03-20T20:06:55.318Z,10.10
2023-03-20T20:09:44.821Z,10.10
2023-03-20T20:12:32.407Z,10.10
2023-03-20T20:15:20.728Z,10.10
2023-03-20T20:18:08.802Z,10.10
2023-03-20T20:24:07.439Z,10.20
2023-03-20T20:27:15.111Z,10.20
2023-03-20T20:30:05.017Z,10.20
2023-03-20T20:33:01.093Z,10.20
2023-03-20T20:36:21.111Z,10.20
2023-03-20T20:38:58.621Z,10.10
2023-03-20T20:41:47.828Z,10.10
2023-03-20T20:44:35.633Z,10.10
2023-03-20T20:47:23.296Z,10.10
2023-03-20T20:50:12.307Z,10.10
2023-03-20T20:53:00.647Z,10.00
2023-03-20T20:55:48.596Z,10.10
2023-03-20T20:58:37.881Z,10.00
2023-03-20T21:01:25.950Z,10.10
2023-03-20T21:04:14.168Z,10.10
2023-03-20T21:07:10.965Z,10.10
2023-03-20T21:09:59.131Z,10.10
2023-03-20T21:12:58.651Z,10.10
2023-03-20T21:15:48.930Z,10.10
2023-03-20T21:18:36.983Z,10.10
2023-03-20T21:21:25.140Z,10.10
2023-03-20T21:24:31.037Z,10.10
2023-03-20T21:27:21.863Z,10.10
2023-03-20T21:30:09.916Z,10.00
2023-03-20T21:32:59.045Z,9.90
2023-03-20T21:35:47.238Z,9.80
2023-03-20T21:41:42.910Z,9.60
2023-03-20T21:45:20.753Z,9.40
2023-03-20T21:51:23.547Z,9.30
2023-03-20T21:57:44.355Z,9.10
2023-03-20T22:01:14.183Z,9.00
2023-03-20T22:03:47.560Z,8.90
2023-03-20T22:10:18.759Z,8.80
2023-03-20T22:13:29.650Z,8.70
2023-03-20T22:16:33.686Z,8.60
2023-03-20T22:19:52.601Z,8.50
2023-03-20T22:38:41.699Z,8.30
2023-03-20T22:44:53.613Z,8.20
2023-03-20T22:47:17.719Z,8.20
2023-03-20T22:50:07.435Z,8.30
2023-03-20T22:52:56.995Z,8.30
2023-03-20T22:55:46.922Z,8.30
2023-03-20T22:58:34.968Z,8.30
2023-03-20T23:01:22.740Z,8.40
2023-03-20T23:04:11.118Z,8.40
2023-03-20T23:06:58.763Z,8.40
2023-03-20T23:09:52.268Z,8.40
2023-03-20T23:12:42.899Z,8.40
2023-03-20T23:15:31.608Z,8.50
2023-03-20T23:18:19.772Z,8.50
2023-03-20T23:21:08.140Z,8.50
2023-03-20T23:23:56.163Z,8.60
2023-03-20T23:26:45.614Z,8.60
2023-03-20T23:29:33.709Z,8.60
2023-03-20T23:32:21.361Z,8.60
2023-03-20T23:35:10.637Z,8.70
2023-03-20T23:37:58.980Z,8.70
2023-03-20T23:40:51.094Z,8.60
2023-03-20T23:43:40.806Z,8.60
2023-03-20T23:46:28.529Z,8.60
2023-03-20T23:49:17.463Z,8.60
2023-03-20T23:52:05.120Z,8.60
2023-03-20T23:54:52.964Z,8.60
2023-03-20T23:57:40.738Z,8.70
